createdAt,value
2022-10-01T00:01:11.862Z,10.35
2022-10-01T00:03:39.594Z,10.37
2022-10-01T00:06:09.138Z,10.38
2022-10-01T00:08:38.301Z,10.42
2022-10-01T00:11:10.385Z,10.40
2022-10-01T00:13:38.253Z,10.40
2022-10-01T00:16:09.345Z,10.42
2022-10-01T00:18:38.241Z,10.39
2022-10-01T00:21:09.652Z,10.39
2022-10-01T00:23:37.733Z,10.38
2022-10-01T00:26:14.862Z,10.40
2022-10-01T00:28:42.871Z,10.41
2022-10-01T00:31:12.740Z,10.42
2022-10-01T00:33:40.493Z,10.37
2022-10-01T00:36:09.789Z,10.34
2022-10-01T00:38:38.185Z,10.33
2022-10-01T00:41:06.491Z,10.36
2022-10-01T00:43:35.620Z,10.37
2022-10-01T00:46:06.861Z,10.37
2022-10-01T00:48:41.136Z,10.37
2022-10-01T00:51:08.888Z,10.34
2022-10-01T00:53:37.811Z,10.28
2022-10-01T00:56:07.066Z,10.25
2022-10-01T00:58:34.819Z,10.24
2022-10-01T01:01:02.470Z,10.24
2022-10-01T01:03:30.402Z,10.22
2022-10-01T01:05:59.419Z,10.21
2022-10-01T01:08:27.050Z,10.23
2022-10-01T01:10:59.503Z,10.19
2022-10-01T01:13:34.423Z,10.13
2022-10-01T01:16:06.661Z,10.11
2022-10-01T01:18:35.532Z,10.08
2022-10-01T01:21:20.888Z,10.06
2022-10-01T01:24:12.211Z,10.02
2022-10-01T01:26:54.528Z,10.01
2022-10-01T01:29:26.808Z,10.02
2022-10-01T01:31:56.554Z,10.00
2022-10-01T01:34:26.885Z,9.97
2022-10-01T01:36:59.291Z,9.96
2022-10-01T01:39:29.450Z,9.92
2022-10-01T01:42:01.193Z,9.93
2022-10-01T01:44:33.955Z,9.94
2022-10-01T01:47:03.249Z,9.95
2022-10-01T01:49:30.935Z,9.93
2022-10-01T01:52:02.717Z,9.92
2022-10-01T01:54:30.465Z,9.87
2022-10-01T01:56:59.209Z,9.86
2022-10-01T01:59:27.294Z,9.81
2022-10-01T02:01:56.374Z,9.79
2022-10-01T02:04:26.603Z,9.74
2022-10-01T02:07:07.751Z,9.70
2022-10-01T02:09:39.585Z,9.67
2022-10-01T02:12:13.840Z,9.60
2022-10-01T02:14:49.127Z,9.56
2022-10-01T02:17:23.666Z,9.58
2022-10-01T02:19:56.993Z,9.53
2022-10-01T02:22:27.892Z,9.48
2022-10-01T02:24:57.411Z,9.47
2022-10-01T02:27:28.946Z,9.41
2022-10-01T02:29:58.391Z,9.39
2022-10-01T02:32:28.819Z,9.37
2022-10-01T02:34:56.600Z,9.36
2022-10-01T02:37:25.916Z,9.32
2022-10-01T02:39:54.340Z,9.28
2022-10-01T02:42:23.375Z,9.24
2022-10-01T02:44:52.413Z,9.22
2022-10-01T02:47:22.723Z,9.14
2022-10-01T02:49:52.519Z,9.12
2022-10-01T02:52:23.708Z,9.06
2022-10-01T02:54:53.986Z,9.02
2022-10-01T02:57:23.987Z,8.95
2022-10-01T02:59:52.119Z,8.92
2022-10-01T03:02:20.515Z,8.88
2022-10-01T03:04:48.997Z,8.87
2022-10-01T03:07:18.571Z,8.86
2022-10-01T03:09:46.241Z,8.80
2022-10-01T03:12:13.903Z,8.76
2022-10-01T03:14:41.999Z,8.65
2022-10-01T03:17:09.638Z,8.61
2022-10-01T03:19:37.306Z,8.61
2022-10-01T03:22:05.253Z,8.60
2022-10-01T03:24:34.324Z,8.57
2022-10-01T03:27:02.130Z,8.53
2022-10-01T03:29:29.750Z,8.51
2022-10-01T03:31:57.439Z,8.48
2022-10-01T03:34:25.083Z,8.47
2022-10-01T03:36:52.971Z,8.49
2022-10-01T03:39:20.728Z,8.46
2022-10-01T03:41:49.808Z,8.46
2022-10-01T03:44:17.516Z,8.46
2022-10-01T03:46:45.165Z,8.41
2022-10-01T03:49:12.845Z,8.40
2022-10-01T03:51:40.485Z,8.35
2022-10-01T03:54:09.028Z,8.30
2022-10-01T03:56:36.903Z,8.24
2022-10-01T03:59:06.026Z,8.23
2022-10-01T04:01:34.070Z,8.19
2022-10-01T04:04:02.428Z,8.19
2022-10-01T04:06:30.025Z,8.19
2022-10-01T04:08:57.651Z,8.20
2022-10-01T04:11:25.736Z,8.19
2022-10-01T04:13:53.341Z,8.14
2022-10-01T04:16:22.412Z,8.11
2022-10-01T04:18:50.044Z,8.10
2022-10-01T04:21:18.593Z,8.10
2022-10-01T04:23:46.271Z,8.11
2022-10-01T04:26:13.988Z,8.12
2022-10-01T04:28:41.675Z,8.12
2022-10-01T04:31:27.504Z,8.11
2022-10-01T04:33:58.179Z,8.13
2022-10-01T04:36:26.305Z,8.13
2022-10-01T04:38:57.867Z,8.15
2022-10-01T04:41:27.304Z,8.13
2022-10-01T04:43:54.920Z,8.13
2022-10-01T04:46:22.646Z,8.11
2022-10-01T04:48:50.353Z,8.12
2022-10-01T04:51:19.390Z,8.13
2022-10-01T04:53:47.040Z,8.13
2022-10-01T04:56:14.713Z,8.10
2022-10-01T04:58:42.308Z,8.10
2022-10-01T05:01:09.954Z,8.14
2022-10-01T05:03:37.612Z,8.13
2022-10-01T05:06:05.308Z,8.13
2022-10-01T05:08:34.310Z,8.13
2022-10-01T05:11:03.162Z,8.13
2022-10-01T05:13:31.816Z,8.13
2022-10-01T05:15:59.659Z,8.14
2022-10-01T05:18:27.336Z,8.16
2022-10-01T05:20:54.957Z,8.15
2022-10-01T05:23:22.646Z,8.13
2022-10-01T05:25:51.678Z,8.15
2022-10-01T05:28:22.401Z,8.18
2022-10-01T05:30:50.921Z,8.20
2022-10-01T05:33:18.604Z,8.26
2022-10-01T05:35:46.209Z,8.31
2022-10-01T05:38:13.861Z,8.34
2022-10-01T05:40:41.489Z,8.35
2022-10-01T05:43:10.454Z,8.38
2022-10-01T05:45:38.156Z,8.43
2022-10-01T05:48:07.144Z,8.46
2022-10-01T05:50:39.187Z,8.47
2022-10-01T05:53:07.663Z,8.49
2022-10-01T05:55:35.817Z,8.47
2022-10-01T05:58:04.768Z,8.45
2022-10-01T06:00:34.384Z,8.47
2022-10-01T06:03:03.604Z,8.51
2022-10-01T06:05:32.858Z,8.56
2022-10-01T06:08:00.778Z,8.57
2022-10-01T06:10:30.229Z,8.62
2022-10-01T06:13:00.296Z,8.65
2022-10-01T06:15:27.890Z,8.65
2022-10-01T06:17:57.070Z,8.71
2022-10-01T06:20:24.739Z,8.73
2022-10-01T06:22:56.582Z,8.70
2022-10-01T06:25:24.331Z,8.76
2022-10-01T06:27:57.891Z,8.81
2022-10-01T06:30:27.052Z,8.85
2022-10-01T06:33:01.156Z,8.90
2022-10-01T06:35:28.826Z,8.95
2022-10-01T06:37:56.423Z,8.99
2022-10-01T06:40:24.132Z,9.02
2022-10-01T06:42:56.590Z,9.07
2022-10-01T06:45:24.468Z,9.12
2022-10-01T06:47:56.627Z,9.15
2022-10-01T06:50:24.293Z,9.21
2022-10-01T06:52:51.152Z,9.27
2022-10-01T06:55:18.998Z,9.30
2022-10-01T06:57:46.885Z,9.33
2022-10-01T07:00:15.358Z,9.36
2022-10-01T07:02:43.056Z,9.42
2022-10-01T07:05:12.513Z,9.44
2022-10-01T07:07:40.173Z,9.50
2022-10-01T07:10:09.933Z,9.53
2022-10-01T07:12:37.974Z,9.60
2022-10-01T07:15:06.664Z,9.62
2022-10-01T07:17:34.460Z,9.67
2022-10-01T07:20:02.687Z,9.72
2022-10-01T07:22:31.670Z,9.78
2022-10-01T07:24:59.307Z,9.79
2022-10-01T07:27:27.050Z,9.81
2022-10-01T07:29:58.948Z,9.82
2022-10-01T07:32:27.066Z,9.89
2022-10-01T07:34:54.713Z,9.93
2022-10-01T07:37:22.988Z,9.96
2022-10-01T07:39:51.990Z,10.00
2022-10-01T07:42:19.639Z,10.04
2022-10-01T07:44:47.306Z,10.08
2022-10-01T07:47:17.039Z,10.11
2022-10-01T07:49:44.660Z,10.16
2022-10-01T07:52:13.507Z,10.24
2022-10-01T07:54:41.224Z,10.25
2022-10-01T07:57:10.200Z,10.26
2022-10-01T07:59:38.124Z,10.34
2022-10-01T08:02:05.784Z,10.38
2022-10-01T08:04:51.054Z,10.44
2022-10-01T08:07:18.687Z,10.48
2022-10-01T08:09:46.394Z,10.53
2022-10-01T08:12:17.748Z,10.54
2022-10-01T08:14:45.892Z,10.59
2022-10-01T08:17:13.480Z,10.62
2022-10-01T08:19:41.129Z,10.64
2022-10-01T08:22:17.629Z,10.65
2022-10-01T08:24:45.261Z,10.67
2022-10-01T08:27:12.961Z,10.70
2022-10-01T08:29:43.289Z,10.76
2022-10-01T08:32:11.043Z,10.82
2022-10-01T08:34:38.801Z,10.82
2022-10-01T08:37:06.486Z,10.86
2022-10-01T08:39:34.154Z,10.91
2022-10-01T08:42:07.175Z,10.96
2022-10-01T08:44:41.474Z,10.94
2022-10-01T08:47:14.425Z,10.99
2022-10-01T08:49:43.531Z,11.01
2022-10-01T08:52:17.127Z,11.08
2022-10-01T08:54:47.930Z,11.15
2022-10-01T08:57:17.309Z,11.16
2022-10-01T08:59:49.771Z,11.19
2022-10-01T09:02:23.707Z,11.23
2022-10-01T09:04:55.090Z,11.27
2022-10-01T09:07:47.933Z,11.32
2022-10-01T09:10:25.272Z,11.34
2022-10-01T09:13:06.422Z,11.33
2022-10-01T09:15:41.691Z,11.36
2022-10-01T09:18:17.100Z,11.38
2022-10-01T09:20:47.414Z,11.44
2022-10-01T09:23:20.478Z,11.49
2022-10-01T09:25:51.276Z,11.49
2022-10-01T09:28:21.544Z,11.50
2022-10-01T09:30:54.841Z,11.56
2022-10-01T09:33:27.802Z,11.61
2022-10-01T09:36:02.514Z,11.64
2022-10-01T09:38:36.415Z,11.66
2022-10-01T09:41:04.624Z,11.59
2022-10-01T09:43:33.754Z,11.65
2022-10-01T09:46:01.829Z,11.66
2022-10-01T09:48:34.215Z,11.65
2022-10-01T09:51:05.490Z,11.66
2022-10-01T09:53:36.564Z,11.67
2022-10-01T09:56:09.426Z,11.65
2022-10-01T09:58:39.982Z,11.66
2022-10-01T10:01:17.103Z,11.64
2022-10-01T10:03:54.625Z,11.63
2022-10-01T10:06:23.983Z,11.62
2022-10-01T10:08:52.623Z,11.58
2022-10-01T10:11:23.470Z,11.54
2022-10-01T10:13:52.644Z,11.45
2022-10-01T10:16:24.865Z,11.45
2022-10-01T10:18:56.186Z,11.41
2022-10-01T10:21:26.821Z,11.40
2022-10-01T10:23:56.031Z,11.31
2022-10-01T10:26:29.840Z,11.32
2022-10-01T10:28:57.643Z,11.29
2022-10-01T10:31:27.315Z,11.21
2022-10-01T10:34:00.501Z,11.19
2022-10-01T10:36:31.372Z,11.14
2022-10-01T10:39:00.047Z,11.22
2022-10-01T10:41:29.068Z,11.27
2022-10-01T10:44:00.552Z,11.27
2022-10-01T10:47:00.016Z,11.28
2022-10-01T10:49:31.391Z,11.29
2022-10-01T10:52:01.046Z,11.32
2022-10-01T10:54:32.605Z,11.35
2022-10-01T10:57:02.316Z,11.38
2022-10-01T10:59:35.017Z,11.40
2022-10-01T11:02:04.392Z,11.41
2022-10-01T11:04:42.416Z,11.42
2022-10-01T11:07:11.056Z,11.43
2022-10-01T11:09:51.299Z,11.38
2022-10-01T11:12:27.066Z,11.37
2022-10-01T11:15:06.772Z,11.32
2022-10-01T11:17:55.167Z,11.32
2022-10-01T11:20:33.929Z,11.28
2022-10-01T11:23:12.973Z,11.27
2022-10-01T11:25:46.398Z,11.25
2022-10-01T11:28:29.440Z,11.23
2022-10-01T11:31:01.055Z,11.20
2022-10-01T11:33:36.078Z,11.17
2022-10-01T11:36:11.300Z,11.12
2022-10-01T11:38:46.755Z,11.09
2022-10-01T11:41:20.100Z,11.03
2022-10-01T11:43:52.452Z,11.06
2022-10-01T11:46:33.131Z,11.05
2022-10-01T11:49:18.036Z,11.06
2022-10-01T11:51:50.532Z,11.03
2022-10-01T11:54:22.245Z,11.02
2022-10-01T11:57:09.824Z,10.94
2022-10-01T11:59:40.108Z,10.90
2022-10-01T12:02:16.147Z,10.88
2022-10-01T12:04:48.618Z,10.81
2022-10-01T12:07:21.850Z,10.79
2022-10-01T12:09:57.498Z,10.80
2022-10-01T12:12:28.443Z,10.82
2022-10-01T12:15:06.453Z,10.78
2022-10-01T12:17:37.147Z,10.78
2022-10-01T12:20:13.393Z,10.78
2022-10-01T12:22:43.412Z,10.73
2022-10-01T12:25:12.997Z,10.72
2022-10-01T12:27:47.931Z,10.70
2022-10-01T12:30:18.666Z,10.57
2022-10-01T12:32:58.646Z,10.60
2022-10-01T12:35:38.360Z,10.63
2022-10-01T12:38:21.891Z,10.64
2022-10-01T12:40:55.157Z,10.65
2022-10-01T12:43:48.897Z,10.62
2022-10-01T12:46:25.745Z,10.56
2022-10-01T12:49:00.794Z,10.55
2022-10-01T12:51:46.756Z,10.54
2022-10-01T12:54:52.920Z,10.51
2022-10-01T12:57:33.063Z,10.53
2022-10-01T13:00:08.093Z,10.57
2022-10-01T13:02:58.223Z,10.50
2022-10-01T13:05:32.093Z,10.55
2022-10-01T13:08:08.892Z,10.51
2022-10-01T13:10:47.645Z,10.57
2022-10-01T13:13:18.198Z,10.59
2022-10-01T13:15:49.459Z,10.53
2022-10-01T13:18:27.217Z,10.53
2022-10-01T13:21:07.021Z,10.55
2022-10-01T13:23:41.552Z,10.54
2022-10-01T13:26:17.407Z,10.56
2022-10-01T13:29:01.798Z,10.61
2022-10-01T13:31:37.579Z,10.62
2022-10-01T13:34:25.940Z,10.60
2022-10-01T13:36:53.773Z,10.63
2022-10-01T13:39:22.799Z,10.60
2022-10-01T13:41:59.321Z,10.62
2022-10-01T13:44:33.277Z,10.66
2022-10-01T13:47:06.217Z,10.64
2022-10-01T13:49:34.901Z,10.67
2022-10-01T13:52:03.525Z,10.66
2022-10-01T13:54:39.837Z,10.72
2022-10-01T13:57:12.607Z,10.72
2022-10-01T13:59:40.285Z,10.74
2022-10-01T14:02:32.475Z,10.74
2022-10-01T14:05:15.999Z,10.73
2022-10-01T14:07:44.901Z,10.75
2022-10-01T14:10:15.468Z,10.77
2022-10-01T14:13:03.684Z,10.79
2022-10-01T14:15:53.554Z,10.79
2022-10-01T14:18:23.541Z,10.79
2022-10-01T14:20:57.271Z,10.82
2022-10-01T14:23:28.715Z,10.85
2022-10-01T14:26:00.556Z,10.84
2022-10-01T14:28:40.293Z,10.83
2022-10-01T14:31:10.691Z,10.83
2022-10-01T14:33:58.642Z,10.89
2022-10-01T14:36:29.618Z,10.91
2022-10-01T14:39:05.496Z,10.89
2022-10-01T14:41:35.034Z,10.92
2022-10-01T14:44:22.189Z,10.91
2022-10-01T14:46:50.281Z,10.92
2022-10-01T14:49:20.857Z,10.94
2022-10-01T14:51:53.198Z,10.94
2022-10-01T14:54:21.648Z,10.96
2022-10-01T14:56:50.030Z,10.96
2022-10-01T14:59:31.262Z,10.97
2022-10-01T15:02:01.310Z,10.97
2022-10-01T15:04:29.335Z,11.00
2022-10-01T15:07:04.958Z,11.01
2022-10-01T15:09:34.972Z,11.00
2022-10-01T15:12:03.837Z,10.96
2022-10-01T15:14:33.420Z,10.95
2022-10-01T15:17:04.784Z,10.98
2022-10-01T15:19:33.162Z,10.96
2022-10-01T15:22:02.276Z,10.96
2022-10-01T15:24:38.065Z,10.97
2022-10-01T15:27:07.066Z,10.97
2022-10-01T15:29:36.547Z,10.96
2022-10-01T15:32:05.690Z,11.01
2022-10-01T15:34:34.068Z,11.01
2022-10-01T15:37:02.236Z,11.02
2022-10-01T15:39:32.500Z,11.02
2022-10-01T15:42:02.511Z,11.09
2022-10-01T15:44:46.390Z,11.10
2022-10-01T15:47:27.953Z,11.16
2022-10-01T15:50:19.156Z,11.22
2022-10-01T15:52:53.386Z,11.22
2022-10-01T15:55:24.981Z,11.22
2022-10-01T15:57:56.743Z,11.21
2022-10-01T16:00:27.868Z,11.22
2022-10-01T16:02:56.606Z,11.27
2022-10-01T16:05:26.443Z,11.29
2022-10-01T16:07:58.342Z,11.28
2022-10-01T16:10:44.884Z,11.30
2022-10-01T16:13:32.008Z,11.31
2022-10-01T16:16:20.310Z,11.32
2022-10-01T16:18:53.919Z,11.35
2022-10-01T16:21:22.633Z,11.36
2022-10-01T16:23:52.930Z,11.37
2022-10-01T16:26:33.371Z,11.39
2022-10-01T16:29:02.867Z,11.40
2022-10-01T16:31:32.457Z,11.43
2022-10-01T16:34:00.226Z,11.44
2022-10-01T16:36:27.891Z,11.42
2022-10-01T16:38:56.265Z,11.47
2022-10-01T16:41:25.365Z,11.47
2022-10-01T16:43:54.737Z,11.50
2022-10-01T16:46:22.417Z,11.51
2022-10-01T16:48:52.379Z,11.52
2022-10-01T16:51:20.222Z,11.49
2022-10-01T16:53:47.941Z,11.50
2022-10-01T16:56:15.881Z,11.52
2022-10-01T16:58:45.162Z,11.54
2022-10-01T17:01:15.147Z,11.55
2022-10-01T17:03:43.252Z,11.54
2022-10-01T17:06:12.340Z,11.50
2022-10-01T17:08:39.994Z,11.48
2022-10-01T17:11:11.875Z,11.53
2022-10-01T17:13:40.252Z,11.52
2022-10-01T17:16:07.943Z,11.49
2022-10-01T17:18:35.666Z,11.48
2022-10-01T17:21:04.119Z,11.49
2022-10-01T17:23:34.858Z,11.54
2022-10-01T17:26:03.036Z,11.54
2022-10-01T17:28:31.256Z,11.54
2022-10-01T17:30:58.949Z,11.54
2022-10-01T17:33:27.360Z,11.50
2022-10-01T17:35:55.847Z,11.51
2022-10-01T17:38:24.007Z,11.56
2022-10-01T17:40:56.676Z,11.57
2022-10-01T17:43:24.858Z,11.62
2022-10-01T17:45:56.725Z,11.63
2022-10-01T17:48:25.090Z,11.61
2022-10-01T17:50:59.949Z,11.63
2022-10-01T17:53:34.059Z,11.62
2022-10-01T17:56:08.097Z,11.66
2022-10-01T17:58:35.922Z,11.64
2022-10-01T18:01:03.976Z,11.64
2022-10-01T18:03:31.658Z,11.63
2022-10-01T18:06:03.486Z,11.61
2022-10-01T18:08:51.253Z,11.60
2022-10-01T18:11:20.438Z,11.66
2022-10-01T18:13:48.626Z,11.63
2022-10-01T18:16:19.193Z,11.66
2022-10-01T18:21:35.018Z,11.71
2022-10-01T18:24:04.846Z,11.72
2022-10-01T18:26:34.491Z,11.70
2022-10-01T18:29:02.429Z,11.70
2022-10-01T18:31:34.665Z,11.71
2022-10-01T18:34:02.829Z,11.71
2022-10-01T18:36:47.474Z,11.71
2022-10-01T18:39:19.029Z,11.71
2022-10-01T18:41:48.522Z,11.70
2022-10-01T18:44:20.237Z,11.69
2022-10-01T18:46:57.147Z,11.70
2022-10-01T18:49:48.970Z,11.71
2022-10-01T18:52:21.788Z,11.69
2022-10-01T18:55:08.838Z,11.69
2022-10-01T18:57:50.848Z,11.66
2022-10-01T19:00:20.874Z,11.66
2022-10-01T19:03:19.431Z,11.64
2022-10-01T19:06:03.544Z,11.63
2022-10-01T19:08:49.360Z,11.62
2022-10-01T19:11:20.900Z,11.66
2022-10-01T19:13:59.905Z,11.69
2022-10-01T19:16:38.149Z,11.68
2022-10-01T19:19:16.939Z,11.67
2022-10-01T19:21:49.346Z,11.65
2022-10-01T19:24:25.462Z,11.65
2022-10-01T19:26:57.660Z,11.65
2022-10-01T19:29:30.970Z,11.63
2022-10-01T19:32:01.055Z,11.65
2022-10-01T19:34:31.607Z,11.69
2022-10-01T19:37:02.593Z,11.70
2022-10-01T19:39:34.406Z,11.71
2022-10-01T19:42:05.648Z,11.72
2022-10-01T19:44:40.875Z,11.73
2022-10-01T19:47:16.736Z,11.70
2022-10-01T19:49:45.820Z,11.71
2022-10-01T19:52:16.609Z,11.74
2022-10-01T19:54:46.629Z,11.79
2022-10-01T19:57:21.784Z,11.80
2022-10-01T19:59:50.940Z,11.83
2022-10-01T20:02:32.277Z,11.87
2022-10-01T20:05:03.551Z,11.89
2022-10-01T20:07:38.942Z,11.92
2022-10-01T20:10:12.378Z,11.92
2022-10-01T20:12:44.690Z,11.92
2022-10-01T20:15:21.770Z,11.93
2022-10-01T20:18:03.729Z,11.94
2022-10-01T20:20:35.233Z,11.95
2022-10-01T20:23:16.136Z,11.95
2022-10-01T20:25:47.842Z,11.95
2022-10-01T20:28:21.365Z,11.95
2022-10-01T20:30:58.278Z,11.98
2022-10-01T20:33:31.074Z,12.00
2022-10-01T20:36:04.372Z,12.02
2022-10-01T20:38:36.382Z,12.01
2022-10-01T20:41:06.682Z,12.06
2022-10-01T20:43:37.226Z,12.07
2022-10-01T20:46:10.490Z,12.07
2022-10-01T20:48:40.548Z,12.06
2022-10-01T20:51:13.724Z,12.08
2022-10-01T20:53:46.778Z,12.12
2022-10-01T20:56:17.776Z,12.12
2022-10-01T20:58:49.152Z,12.11
2022-10-01T21:01:21.446Z,12.11
2022-10-01T21:03:53.122Z,12.09
2022-10-01T21:06:25.709Z,12.07
2022-10-01T21:08:57.115Z,12.07
2022-10-01T21:11:30.532Z,12.05
2022-10-01T21:14:05.162Z,12.05
2022-10-01T21:16:53.902Z,12.06
2022-10-01T21:19:33.959Z,12.02
2022-10-01T21:22:12.581Z,11.97
2022-10-01T21:24:49.654Z,11.97
2022-10-01T21:27:34.201Z,11.97
2022-10-01T21:30:07.868Z,11.97
2022-10-01T21:32:53.030Z,11.96
2022-10-01T21:35:26.935Z,11.91
2022-10-01T21:38:00.961Z,11.86
2022-10-01T21:40:36.124Z,11.84
2022-10-01T21:43:11.311Z,11.82
2022-10-01T21:45:43.506Z,11.80
2022-10-01T21:48:16.258Z,11.78
2022-10-01T21:50:48.052Z,11.70
2022-10-01T21:53:37.993Z,11.73
2022-10-01T21:56:18.633Z,11.74
2022-10-01T21:59:03.082Z,11.72
2022-10-01T22:01:40.568Z,11.72
2022-10-01T22:04:17.241Z,11.76
2022-10-01T22:06:50.840Z,11.78
2022-10-01T22:09:25.713Z,11.79
2022-10-01T22:11:55.587Z,11.79
2022-10-01T22:14:25.355Z,11.77
2022-10-01T22:16:54.443Z,11.78
2022-10-01T22:19:29.318Z,11.79
2022-10-01T22:22:00.600Z,11.79
2022-10-01T22:24:31.256Z,11.79
2022-10-01T22:27:05.269Z,11.79
2022-10-01T22:29:37.364Z,11.79
2022-10-01T22:32:05.999Z,11.77
2022-10-01T22:34:38.792Z,11.78
2022-10-01T22:37:09.367Z,11.78
2022-10-01T22:39:40.885Z,11.80
2022-10-01T22:42:14.184Z,11.80
2022-10-01T22:44:41.890Z,11.82
2022-10-01T22:47:20.835Z,11.80
2022-10-01T22:50:01.491Z,11.80
2022-10-01T22:52:33.985Z,11.81
2022-10-01T22:55:11.281Z,11.80
2022-10-01T22:57:49.147Z,11.80
2022-10-01T23:00:17.274Z,11.81
2022-10-01T23:02:49.985Z,11.81
2022-10-01T23:05:35.436Z,11.81
2022-10-01T23:08:08.093Z,11.80
2022-10-01T23:10:42.167Z,11.82
2022-10-01T23:13:19.492Z,11.82
2022-10-01T23:15:53.258Z,11.82
2022-10-01T23:18:30.492Z,11.82
2022-10-01T23:21:09.781Z,11.81
2022-10-01T23:23:37.670Z,11.82
2022-10-01T23:26:27.911Z,11.81
2022-10-01T23:29:06.163Z,11.85
2022-10-01T23:31:37.957Z,11.84
2022-10-01T23:34:27.112Z,11.85
2022-10-01T23:37:05.548Z,11.83
2022-10-01T23:39:42.437Z,11.82
2022-10-01T23:42:16.644Z,11.86
2022-10-01T23:44:50.016Z,11.87
2022-10-01T23:47:22.641Z,11.88
2022-10-01T23:49:53.217Z,11.87
2022-10-01T23:52:27.421Z,11.90
2022-10-01T23:55:17.960Z,11.90
2022-10-01T23:57:45.311Z,11.90
